createdAt,value
2019-05-01T00:01:42.816Z,7.70
2019-05-01T00:04:32.007Z,7.60
2019-05-01T00:07:04.606Z,7.50
2019-05-01T00:09:34.947Z,7.50
2019-05-01T00:12:05.367Z,7.50
2019-05-01T00:14:37.328Z,7.50
2019-05-01T00:17:07.813Z,7.40
2019-05-01T00:19:38.211Z,7.40
2019-05-01T00:22:08.626Z,7.40
2019-05-01T00:24:39.047Z,7.40
2019-05-01T00:27:09.468Z,7.30
2019-05-01T00:29:39.875Z,7.30
2019-05-01T00:32:10.188Z,7.30
2019-05-01T00:34:41.879Z,7.30
2019-05-01T00:37:12.226Z,7.30
2019-05-01T00:39:42.580Z,7.20
2019-05-01T00:42:12.902Z,7.20
2019-05-01T00:44:43.250Z,7.20
2019-05-01T00:47:13.572Z,7.20
2019-05-01T00:49:43.920Z,7.10
2019-05-01T00:52:14.243Z,7.10
2019-05-01T00:54:47.471Z,7.10
2019-05-01T00:57:27.309Z,7.10
2019-05-01T01:00:16.618Z,7.00
2019-05-01T01:02:50.207Z,7.00
2019-05-01T01:05:20.542Z,6.90
2019-05-01T01:07:50.857Z,6.90
2019-05-01T01:10:21.202Z,6.80
2019-05-01T01:12:51.507Z,6.80
2019-05-01T01:15:21.854Z,6.80
2019-05-01T01:17:52.167Z,6.80
2019-05-01T01:20:22.494Z,6.80
2019-05-01T01:22:52.841Z,6.70
2019-05-01T01:25:23.263Z,6.70
2019-05-01T01:27:53.566Z,6.80
2019-05-01T01:30:23.915Z,6.70
2019-05-01T01:32:54.232Z,6.70
2019-05-01T01:35:24.573Z,6.70
2019-05-01T01:37:54.880Z,6.70
2019-05-01T01:40:25.289Z,6.70
2019-05-01T01:42:58.266Z,6.60
2019-05-01T01:45:36.807Z,6.60
2019-05-01T01:48:15.286Z,6.60
2019-05-01T01:50:46.616Z,6.50
2019-05-01T01:53:20.221Z,6.50
2019-05-01T01:55:50.860Z,6.50
2019-05-01T01:58:22.527Z,6.50
2019-05-01T02:01:14.825Z,6.50
2019-05-01T02:03:48.977Z,6.50
2019-05-01T02:06:19.597Z,6.40
2019-05-01T02:08:56.188Z,6.40
2019-05-01T02:11:21.878Z,6.30
2019-05-01T02:13:56.247Z,6.30
2019-05-01T02:16:26.694Z,6.20
2019-05-01T02:18:56.986Z,6.20
2019-05-01T02:21:27.324Z,6.20
2019-05-01T02:23:59.246Z,6.20
2019-05-01T02:26:32.987Z,6.20
2019-05-01T02:29:10.578Z,6.20
2019-05-01T02:31:44.886Z,6.10
2019-05-01T02:34:18.107Z,6.10
2019-05-01T02:36:50.550Z,6.10
2019-05-01T02:39:22.036Z,6.10
2019-05-01T02:41:55.372Z,6.00
2019-05-01T02:44:29.191Z,6.00
2019-05-01T02:47:02.111Z,6.00
2019-05-01T02:49:47.213Z,6.10
2019-05-01T02:52:20.620Z,6.10
2019-05-01T02:54:53.633Z,6.00
2019-05-01T02:57:26.067Z,6.00
2019-05-01T02:59:57.266Z,6.00
2019-05-01T03:02:29.103Z,6.00
2019-05-01T03:05:00.512Z,5.90
2019-05-01T03:07:33.811Z,5.90
2019-05-01T03:10:09.197Z,5.80
2019-05-01T03:12:40.508Z,5.80
2019-05-01T03:15:12.733Z,5.80
2019-05-01T03:18:00.139Z,5.80
2019-05-01T03:20:37.423Z,5.70
2019-05-01T03:23:21.419Z,5.70
2019-05-01T03:25:52.140Z,5.60
2019-05-01T03:28:22.985Z,5.60
2019-05-01T03:30:53.607Z,5.60
2019-05-01T03:33:23.961Z,5.60
2019-05-01T03:35:54.702Z,5.50
2019-05-01T03:38:25.828Z,5.50
2019-05-01T03:40:57.035Z,5.50
2019-05-01T03:43:27.863Z,5.40
2019-05-01T03:45:58.169Z,5.40
2019-05-01T03:48:28.876Z,5.40
2019-05-01T03:50:59.204Z,5.40
2019-05-01T03:53:29.940Z,5.40
2019-05-01T03:56:00.662Z,5.40
2019-05-01T03:58:31.606Z,5.40
2019-05-01T04:01:27.036Z,5.40
2019-05-01T04:04:10.660Z,5.40
2019-05-01T04:06:41.004Z,5.30
2019-05-01T04:09:11.310Z,5.40
2019-05-01T04:11:41.752Z,5.30
2019-05-01T04:14:12.071Z,5.30
2019-05-01T04:16:44.738Z,5.30
2019-05-01T04:19:16.155Z,5.30
2019-05-01T04:22:01.643Z,5.30
2019-05-01T04:24:32.353Z,5.30
2019-05-01T04:27:04.627Z,5.30
2019-05-01T04:29:54.040Z,5.30
2019-05-01T04:32:27.678Z,5.30
2019-05-01T04:35:17.364Z,5.40
2019-05-01T04:37:48.108Z,5.40
2019-05-01T04:40:19.239Z,5.40
2019-05-01T04:42:50.026Z,5.40
2019-05-01T04:45:21.906Z,5.50
2019-05-01T04:47:53.065Z,5.50
2019-05-01T04:50:23.576Z,5.50
2019-05-01T04:52:54.020Z,5.50
2019-05-01T04:55:24.730Z,5.60
2019-05-01T04:57:55.161Z,5.60
2019-05-01T05:00:25.510Z,5.60
2019-05-01T05:03:04.960Z,5.60
2019-05-01T05:05:33.684Z,5.70
2019-05-01T05:08:04.533Z,5.80
2019-05-01T05:10:35.174Z,5.80
2019-05-01T05:13:23.617Z,5.80
2019-05-01T05:16:02.435Z,5.90
2019-05-01T05:18:32.793Z,6.00
2019-05-01T05:21:03.119Z,6.10
2019-05-01T05:23:33.571Z,6.10
2019-05-01T05:26:04.684Z,6.20
2019-05-01T05:28:36.219Z,6.30
2019-05-01T05:31:07.696Z,6.40
2019-05-01T05:33:39.912Z,6.50
2019-05-01T05:36:12.133Z,6.60
2019-05-01T05:39:07.888Z,6.70
2019-05-01T05:41:39.021Z,6.80
2019-05-01T05:44:09.458Z,6.90
2019-05-01T05:46:41.086Z,7.00
2019-05-01T05:49:11.417Z,7.20
2019-05-01T05:51:58.588Z,7.30
2019-05-01T05:54:58.830Z,7.40
2019-05-01T05:57:57.164Z,7.50
2019-05-01T06:00:54.196Z,7.60
2019-05-01T06:04:03.934Z,7.70
2019-05-01T06:06:44.531Z,7.80
2019-05-01T06:09:18.046Z,7.90
2019-05-01T06:11:58.943Z,8.10
2019-05-01T06:15:07.648Z,8.20
2019-05-01T06:17:59.049Z,8.30
2019-05-01T06:20:57.143Z,8.50
2019-05-01T06:23:57.476Z,8.60
2019-05-01T06:26:32.157Z,8.70
2019-05-01T06:29:02.098Z,8.80
2019-05-01T06:31:33.419Z,9.00
2019-05-01T06:34:04.125Z,9.10
2019-05-01T06:36:34.745Z,9.30
2019-05-01T06:39:11.886Z,9.40
2019-05-01T06:41:43.979Z,9.50
2019-05-01T06:44:28.392Z,9.60
2019-05-01T06:47:22.800Z,9.70
2019-05-01T06:50:15.588Z,9.80
2019-05-01T06:52:46.007Z,9.90
2019-05-01T06:55:16.354Z,10.00
2019-05-01T06:57:46.875Z,10.10
2019-05-01T07:00:18.332Z,10.20
2019-05-01T07:02:50.890Z,10.30
2019-05-01T07:05:23.362Z,10.40
2019-05-01T07:07:55.987Z,10.50
2019-05-01T07:10:31.781Z,10.60
2019-05-01T07:13:04.917Z,10.60
2019-05-01T07:15:33.834Z,10.70
2019-05-01T07:18:05.028Z,10.80
2019-05-01T07:20:54.626Z,10.90
2019-05-01T07:23:25.143Z,11.10
2019-05-01T07:25:55.562Z,11.20
2019-05-01T07:28:29.045Z,11.30
2019-05-01T07:31:09.024Z,11.40
2019-05-01T07:33:39.746Z,11.50
2019-05-01T07:36:15.280Z,11.60
2019-05-01T07:38:44.980Z,11.80
2019-05-01T07:41:16.993Z,11.90
2019-05-01T07:43:59.610Z,12.00
2019-05-01T07:46:48.960Z,12.10
2019-05-01T07:49:20.966Z,12.20
2019-05-01T07:51:52.647Z,12.30
2019-05-01T07:54:23.818Z,12.40
2019-05-01T07:56:54.186Z,12.50
2019-05-01T07:59:27.443Z,12.60
2019-05-01T08:02:03.509Z,12.70
2019-05-01T08:04:36.401Z,12.80
2019-05-01T08:07:05.888Z,12.90
2019-05-01T08:09:36.245Z,13.00
2019-05-01T08:12:06.599Z,13.10
2019-05-01T08:14:36.924Z,13.20
2019-05-01T08:17:12.890Z,13.30
2019-05-01T08:20:09.951Z,13.30
2019-05-01T08:22:41.235Z,13.40
2019-05-01T08:25:11.562Z,13.50
2019-05-01T08:27:56.252Z,13.60
2019-05-01T08:30:56.441Z,13.70
2019-05-01T08:33:49.836Z,13.80
2019-05-01T08:36:17.834Z,13.90
2019-05-01T08:38:48.203Z,14.00
2019-05-01T08:41:18.650Z,14.10
2019-05-01T08:43:54.109Z,14.20
2019-05-01T08:46:46.761Z,14.30
2019-05-01T08:49:33.969Z,14.40
2019-05-01T08:52:04.713Z,14.50
2019-05-01T08:54:36.531Z,14.60
2019-05-01T08:57:11.671Z,14.70
2019-05-01T08:59:42.072Z,14.70
2019-05-01T09:02:12.438Z,14.80
2019-05-01T09:04:42.743Z,15.00
2019-05-01T09:07:14.603Z,15.00
2019-05-01T09:09:47.001Z,15.10
2019-05-01T09:12:17.127Z,15.20
2019-05-01T09:14:47.483Z,15.40
2019-05-01T09:17:17.843Z,15.40
2019-05-01T09:19:48.175Z,15.50
2019-05-01T09:22:18.573Z,15.60
2019-05-01T09:24:49.396Z,15.70
2019-05-01T09:27:29.410Z,15.80
2019-05-01T09:30:04.411Z,15.90
2019-05-01T09:32:34.475Z,16.00
2019-05-01T09:35:15.353Z,16.00
2019-05-01T09:37:37.412Z,16.20
2019-05-01T09:40:09.093Z,16.30
2019-05-01T09:42:41.070Z,16.50
2019-05-01T09:45:11.587Z,16.50
2019-05-01T09:47:43.050Z,16.70
2019-05-01T09:50:13.991Z,16.80
2019-05-01T09:52:55.169Z,16.90
2019-05-01T09:55:35.980Z,16.90
2019-05-01T09:58:06.436Z,17.00
2019-05-01T10:00:36.760Z,17.20
2019-05-01T10:03:07.694Z,17.20
2019-05-01T10:05:42.625Z,17.40
2019-05-01T10:08:10.189Z,17.50
2019-05-01T10:10:41.017Z,17.60
2019-05-01T10:13:11.379Z,17.70
2019-05-01T10:15:41.720Z,17.80
2019-05-01T10:18:12.816Z,17.90
2019-05-01T10:20:45.246Z,18.00
2019-05-01T10:23:16.701Z,18.10
2019-05-01T10:25:52.134Z,18.20
2019-05-01T10:28:35.963Z,18.30
2019-05-01T10:31:14.279Z,18.50
2019-05-01T10:33:46.522Z,18.50
2019-05-01T10:36:32.582Z,18.70
2019-05-01T10:39:03.660Z,18.90
2019-05-01T10:41:35.054Z,19.00
2019-05-01T10:44:05.733Z,19.10
2019-05-01T10:46:36.061Z,19.30
2019-05-01T10:49:06.435Z,19.50
2019-05-01T10:51:36.783Z,19.60
2019-05-01T10:54:07.155Z,19.70
2019-05-01T10:56:37.499Z,19.90
2019-05-01T10:59:07.856Z,20.00
2019-05-01T11:01:51.061Z,20.40
2019-05-01T11:04:21.524Z,21.00
2019-05-01T11:06:51.851Z,22.00
2019-05-01T11:09:22.211Z,23.00
2019-05-01T11:11:52.532Z,24.10
2019-05-01T11:14:22.931Z,25.10
2019-05-01T11:16:53.255Z,25.80
2019-05-01T11:19:23.618Z,26.30
2019-05-01T11:21:53.943Z,26.80
2019-05-01T11:24:24.389Z,27.20
2019-05-01T11:26:54.699Z,27.80
2019-05-01T11:29:25.073Z,28.20
2019-05-01T11:32:17.329Z,28.60
2019-05-01T11:35:05.571Z,29.10
2019-05-01T11:37:54.835Z,29.40
2019-05-01T11:40:35.046Z,29.60
2019-05-01T11:43:05.431Z,29.30
2019-05-01T11:45:35.777Z,29.00
2019-05-01T11:48:06.079Z,29.50
2019-05-01T11:50:36.662Z,30.00
2019-05-01T11:53:06.980Z,30.50
2019-05-01T11:55:37.349Z,30.90
2019-05-01T11:58:07.658Z,31.10
2019-05-01T12:00:38.018Z,31.50
2019-05-01T12:03:09.029Z,31.70
2019-05-01T12:05:39.375Z,32.10
2019-05-01T12:08:09.719Z,32.50
2019-05-01T12:10:41.061Z,32.90
2019-05-01T12:13:11.400Z,33.00
2019-05-01T12:15:43.395Z,32.70
2019-05-01T12:18:14.695Z,32.50
2019-05-01T12:20:46.123Z,31.50
2019-05-01T12:23:16.467Z,31.60
2019-05-01T12:25:46.823Z,31.90
2019-05-01T12:28:17.302Z,32.50
2019-05-01T12:30:47.995Z,32.40
2019-05-01T12:33:18.374Z,32.40
2019-05-01T12:35:50.567Z,32.80
2019-05-01T12:38:21.744Z,33.40
2019-05-01T12:41:10.142Z,33.90
2019-05-01T12:43:40.944Z,33.90
2019-05-01T12:46:12.887Z,33.40
2019-05-01T12:48:43.207Z,33.40
2019-05-01T12:51:13.580Z,33.40
2019-05-01T12:54:06.444Z,33.40
2019-05-01T12:56:48.830Z,33.50
2019-05-01T12:59:19.164Z,33.90
2019-05-01T13:01:49.520Z,33.80
2019-05-01T13:04:19.987Z,33.60
2019-05-01T13:06:53.095Z,33.80
2019-05-01T13:09:23.442Z,34.00
2019-05-01T13:11:53.795Z,34.40
2019-05-01T13:14:24.131Z,34.50
2019-05-01T13:16:54.522Z,35.00
2019-05-01T13:19:24.837Z,35.00
2019-05-01T13:21:55.222Z,35.20
2019-05-01T13:24:25.542Z,34.80
2019-05-01T13:27:12.351Z,34.50
2019-05-01T13:30:00.703Z,34.60
2019-05-01T13:32:49.996Z,35.10
2019-05-01T13:35:20.396Z,35.10
2019-05-01T13:37:50.754Z,35.70
2019-05-01T13:40:21.077Z,36.00
2019-05-01T13:42:51.454Z,36.50
2019-05-01T13:45:22.490Z,36.90
2019-05-01T13:47:54.417Z,37.00
2019-05-01T13:50:24.980Z,37.30
2019-05-01T13:52:55.326Z,37.30
2019-05-01T13:55:25.681Z,37.30
2019-05-01T13:57:56.021Z,37.70
2019-05-01T14:00:27.067Z,37.90
2019-05-01T14:02:57.435Z,37.30
2019-05-01T14:05:27.753Z,36.70
2019-05-01T14:07:58.168Z,36.70
2019-05-01T14:10:28.661Z,37.00
2019-05-01T14:12:59.094Z,37.20
2019-05-01T14:15:29.476Z,37.00
2019-05-01T14:17:59.852Z,37.20
2019-05-01T14:20:51.843Z,37.70
2019-05-01T14:23:39.274Z,37.90
2019-05-01T14:26:09.627Z,38.10
2019-05-01T14:28:40.910Z,38.30
2019-05-01T14:31:11.273Z,38.50
2019-05-01T14:33:41.748Z,38.60
2019-05-01T14:36:12.179Z,38.90
2019-05-01T14:38:42.556Z,39.10
2019-05-01T14:41:12.924Z,39.10
2019-05-01T14:43:43.343Z,38.40
2019-05-01T14:46:13.663Z,38.10
2019-05-01T14:48:44.013Z,37.90
2019-05-01T14:51:16.145Z,38.20
2019-05-01T14:53:47.011Z,38.60
2019-05-01T14:56:17.356Z,38.50
2019-05-01T14:58:48.631Z,38.00
2019-05-01T15:01:19.006Z,38.10
2019-05-01T15:03:49.360Z,38.60
2019-05-01T15:06:19.711Z,39.10
2019-05-01T15:08:50.063Z,38.90
2019-05-01T15:11:20.357Z,38.80
2019-05-01T15:13:59.850Z,39.00
2019-05-01T15:16:40.227Z,39.20
2019-05-01T15:19:15.565Z,39.40
2019-05-01T15:21:46.248Z,39.60
2019-05-01T15:24:16.610Z,39.80
2019-05-01T15:26:47.177Z,40.00
2019-05-01T15:29:17.854Z,40.10
2019-05-01T15:31:48.521Z,39.90
2019-05-01T15:34:18.880Z,39.80
2019-05-01T15:36:49.196Z,39.80
2019-05-01T15:39:30.950Z,39.70
2019-05-01T15:42:23.230Z,39.70
2019-05-01T15:44:53.659Z,39.70
2019-05-01T15:47:24.027Z,39.90
2019-05-01T15:49:54.681Z,39.80
2019-05-01T15:52:25.033Z,39.70
2019-05-01T15:54:55.472Z,39.50
2019-05-01T15:57:25.809Z,39.30
2019-05-01T15:59:56.166Z,38.90
2019-05-01T16:02:26.501Z,38.40
2019-05-01T16:04:57.990Z,38.40
2019-05-01T16:07:28.423Z,38.30
2019-05-01T16:09:58.768Z,38.10
2019-05-01T16:12:40.109Z,38.00
2019-05-01T16:15:17.231Z,37.90
2019-05-01T16:17:47.565Z,37.80
2019-05-01T16:20:17.914Z,37.70
2019-05-01T16:22:48.231Z,37.70
2019-05-01T16:25:18.618Z,37.80
2019-05-01T16:27:48.964Z,37.80
2019-05-01T16:30:23.398Z,37.80
2019-05-01T16:32:53.771Z,37.60
2019-05-01T16:35:24.084Z,37.50
2019-05-01T16:37:56.399Z,37.50
2019-05-01T16:40:46.656Z,37.70
2019-05-01T16:43:16.971Z,37.70
2019-05-01T16:45:47.323Z,37.70
2019-05-01T16:48:17.650Z,37.50
2019-05-01T16:50:47.998Z,37.20
2019-05-01T16:53:18.599Z,37.00
2019-05-01T16:55:48.956Z,36.80
2019-05-01T16:58:19.477Z,36.70
2019-05-01T17:01:13.989Z,36.50
2019-05-01T17:04:01.823Z,36.40
2019-05-01T17:06:39.956Z,36.20
2019-05-01T17:09:29.146Z,36.10
2019-05-01T17:11:59.466Z,35.90
2019-05-01T17:14:30.625Z,35.60
2019-05-01T17:17:01.043Z,35.40
2019-05-01T17:19:32.076Z,35.10
2019-05-01T17:22:02.390Z,34.80
2019-05-01T17:24:32.824Z,34.50
2019-05-01T17:27:03.151Z,34.20
2019-05-01T17:29:34.603Z,33.80
2019-05-01T17:32:05.329Z,33.50
2019-05-01T17:34:35.800Z,33.20
2019-05-01T17:37:06.120Z,33.10
2019-05-01T17:39:37.422Z,32.90
2019-05-01T17:42:09.385Z,32.70
2019-05-01T17:44:39.740Z,32.40
2019-05-01T17:47:10.093Z,32.20
2019-05-01T17:49:44.851Z,32.10
2019-05-01T17:52:13.844Z,31.80
2019-05-01T17:54:44.196Z,31.50
2019-05-01T17:57:14.546Z,31.20
2019-05-01T17:59:47.465Z,30.90
2019-05-01T18:02:42.528Z,30.60
2019-05-01T18:05:30.651Z,30.30
2019-05-01T18:08:01.459Z,29.80
2019-05-01T18:10:34.103Z,29.30
2019-05-01T18:13:03.988Z,28.80
2019-05-01T18:15:34.364Z,28.40
2019-05-01T18:18:04.708Z,28.00
2019-05-01T18:20:36.432Z,27.60
2019-05-01T18:23:17.274Z,27.10
2019-05-01T18:26:04.833Z,26.60
2019-05-01T18:28:39.330Z,26.00
2019-05-01T18:31:14.753Z,25.30
2019-05-01T18:33:45.139Z,24.50
2019-05-01T18:36:19.857Z,23.90
2019-05-01T18:38:56.548Z,23.30
2019-05-01T18:41:41.348Z,22.70
2019-05-01T18:44:14.102Z,22.20
2019-05-01T18:46:44.609Z,21.70
2019-05-01T18:49:15.455Z,21.30
2019-05-01T18:51:45.907Z,20.90
2019-05-01T18:54:16.690Z,20.50
2019-05-01T18:56:47.070Z,20.20
2019-05-01T18:59:17.662Z,19.90
2019-05-01T19:01:49.716Z,19.60
2019-05-01T19:04:23.513Z,19.40
2019-05-01T19:06:52.841Z,19.10
2019-05-01T19:09:30.064Z,18.90
2019-05-01T19:11:55.971Z,18.70
2019-05-01T19:14:28.788Z,18.50
2019-05-01T19:16:58.913Z,18.30
2019-05-01T19:19:30.920Z,18.10
2019-05-01T19:22:02.444Z,17.90
2019-05-01T19:24:38.116Z,17.80
2019-05-01T19:27:07.231Z,17.60
2019-05-01T19:29:38.940Z,17.40
2019-05-01T19:32:09.553Z,17.30
2019-05-01T19:34:41.949Z,17.10
2019-05-01T19:37:16.518Z,17.00
2019-05-01T19:39:49.110Z,16.90
2019-05-01T19:42:21.617Z,16.70
2019-05-01T19:44:51.070Z,16.60
2019-05-01T19:47:22.107Z,16.50
2019-05-01T19:49:54.555Z,16.40
2019-05-01T19:52:24.459Z,16.30
2019-05-01T19:54:54.956Z,16.20
2019-05-01T19:57:25.476Z,16.10
2019-05-01T19:59:55.994Z,15.90
2019-05-01T20:02:26.524Z,15.70
2019-05-01T20:04:57.138Z,15.60
2019-05-01T20:07:28.713Z,15.50
2019-05-01T20:09:59.138Z,15.30
2019-05-01T20:12:29.929Z,15.20
2019-05-01T20:15:00.547Z,15.10
2019-05-01T20:17:31.112Z,15.00
2019-05-01T20:20:01.945Z,14.90
2019-05-01T20:22:32.668Z,14.80
2019-05-01T20:25:03.194Z,14.80
2019-05-01T20:27:34.009Z,14.60
2019-05-01T20:30:06.071Z,14.60
2019-05-01T20:32:36.869Z,14.50
2019-05-01T20:35:07.462Z,14.40
2019-05-01T20:37:38.107Z,14.30
2019-05-01T20:40:11.376Z,14.30
2019-05-01T20:42:41.448Z,14.20
2019-05-01T20:45:17.665Z,14.10
2019-05-01T20:47:46.262Z,14.10
2019-05-01T20:50:17.382Z,14.00
2019-05-01T20:52:49.562Z,13.90
2019-05-01T20:55:20.390Z,13.90
2019-05-01T20:57:51.319Z,13.80
2019-05-01T21:00:23.450Z,13.70
2019-05-01T21:02:53.830Z,13.70
2019-05-01T21:05:29.861Z,13.60
2019-05-01T21:08:13.116Z,13.50
2019-05-01T21:10:51.207Z,13.40
2019-05-01T21:13:23.119Z,13.30
2019-05-01T21:15:56.427Z,13.30
2019-05-01T21:18:27.623Z,13.10
2019-05-01T21:20:57.758Z,13.10
2019-05-01T21:23:28.087Z,13.00
2019-05-01T21:25:58.448Z,12.90
2019-05-01T21:28:28.844Z,12.80
2019-05-01T21:30:59.255Z,12.80
2019-05-01T21:33:29.623Z,12.70
2019-05-01T21:36:04.902Z,12.60
2019-05-01T21:38:32.269Z,12.60
2019-05-01T21:41:02.983Z,12.50
2019-05-01T21:43:37.061Z,12.40
2019-05-01T21:46:06.752Z,12.30
2019-05-01T21:48:37.045Z,12.30
2019-05-01T21:51:07.767Z,12.20
2019-05-01T21:53:42.724Z,12.10
2019-05-01T21:56:10.602Z,12.10
2019-05-01T21:58:41.081Z,12.00
2019-05-01T22:01:11.535Z,12.00
2019-05-01T22:03:42.129Z,11.90
2019-05-01T22:06:15.288Z,11.90
2019-05-01T22:08:44.430Z,11.80
2019-05-01T22:11:14.789Z,11.80
2019-05-01T22:13:45.103Z,11.70
2019-05-01T22:16:22.405Z,11.70
2019-05-01T22:19:16.388Z,11.60
2019-05-01T22:22:21.083Z,11.60
2019-05-01T22:25:02.145Z,11.50
2019-05-01T22:27:39.257Z,11.50
2019-05-01T22:30:24.091Z,11.40
2019-05-01T22:32:54.846Z,11.40
2019-05-01T22:35:27.028Z,11.30
2019-05-01T22:37:57.628Z,11.30
2019-05-01T22:41:06.758Z,11.20
2019-05-01T22:43:36.936Z,11.20
2019-05-01T22:46:11.888Z,11.20
2019-05-01T22:48:42.429Z,11.10
2019-05-01T22:51:24.496Z,11.10
2019-05-01T22:53:56.289Z,11.00
2019-05-01T22:56:28.036Z,11.00
2019-05-01T22:59:00.142Z,11.00
2019-05-01T23:01:32.581Z,10.90
2019-05-01T23:04:06.652Z,10.90
2019-05-01T23:06:41.861Z,10.90
2019-05-01T23:09:15.728Z,10.80
2019-05-01T23:11:48.456Z,10.80
2019-05-01T23:14:22.068Z,10.70
2019-05-01T23:17:05.192Z,10.70
2019-05-01T23:19:35.696Z,10.60
2019-05-01T23:22:09.734Z,10.60
2019-05-01T23:24:40.918Z,10.50
2019-05-01T23:27:11.493Z,10.50
2019-05-01T23:29:41.951Z,10.50
2019-05-01T23:32:12.372Z,10.40
2019-05-01T23:34:43.117Z,10.40
2019-05-01T23:37:13.464Z,10.40
2019-05-01T23:39:43.924Z,10.40
2019-05-01T23:42:14.777Z,10.30
2019-05-01T23:44:45.251Z,10.30
2019-05-01T23:47:16.465Z,10.30
2019-05-01T23:49:47.691Z,10.20
2019-05-01T23:52:19.364Z,10.20
2019-05-01T23:54:49.795Z,10.20
2019-05-01T23:57:20.380Z,10.10
2019-05-01T23:59:50.939Z,10.10
